Royal Melbourne — WDC2865 — position and weather

sailwx.info

Track history (hours):
 
Tides and Currents Weather Stations Pressure Air Temp Water Temp Dewpoint Dewpoint Depression Visibility Wind Speed Wind Dir Waves Ship Positions

Royal Melbourne

Owner: Harley Marine Services, Inc, Seattle, WA. More information available from US FCC via Universal Licensing System and Coast Guard Vessel Documentation Center.

Last reported at 2016-Jul-25 19:19 UTC. Time now 2016-Jul-25 20:09 UTC.
Position N 37°55' W 122°22'.

Length 30 m; draft 2 m.

Type: Tug. MMSI: 366998830.

Date/timePositionNaut miles runAvg speedWind from/ knotsBaromVisibWave heightAir tempDewpointWater temp
2016-Jul-25 19:19N 37°55' W 122°22'0 0.0
2016-Jul-25 18:25N 37°55' W 122°22'0 0.0
2016-Jul-25 17:22N 37°55' W 122°22'0 0.0
2016-Jul-25 16:31N 37°55' W 122°22'0 0.0
2016-Jul-25 15:33N 37°55' W 122°22'3 2.9
2016-Jul-25 14:33N 37°56' W 122°25'7 6.8
2016-Jul-25 13:33N 38°02' W 122°22'5 0.6
2016-Jul-25 04:22N 38°03' W 122°16'0 0.0
2016-Jul-25 03:28N 38°03' W 122°16'0 0.0
2016-Jul-25 02:22N 38°03' W 122°16'3 3.9
2016-Jul-25 01:33N 38°03' W 122°20'8 8.1
2016-Jul-25 00:33N 37°56' W 122°26'9 8.8
2016-Jul-24 23:33N 37°48' W 122°21'3 3.1
2016-Jul-24 22:31N 37°48' W 122°17'0 0.0
2016-Jul-24 21:34N 37°48' W 122°17'0 0.4
2016-Jul-24 20:33N 37°48' W 122°18'3 2.7
2016-Jul-24 19:33N 37°47' W 122°21'3 2.5
2016-Jul-24 18:30N 37°44' W 122°20'0 0.2
2016-Jul-24 17:30N 37°44' W 122°20'0 0.1
2016-Jul-24 16:33N 37°44' W 122°20'0 0.0
2016-Jul-24 15:33N 37°44' W 122°20'0 0.0
2016-Jul-24 14:33N 37°44' W 122°20'0 0.0
2016-Jul-24 13:33N 37°44' W 122°20'0 0.1
2016-Jul-24 12:33N 37°45' W 122°20'7 6.7
2016-Jul-24 11:33N 37°51' W 122°24'5 4.5
2016-Jul-24 10:33N 37°55' W 122°22'0 0.0
2016-Jul-24 09:30N 37°55' W 122°22'0 0.0
2016-Jul-24 08:06N 37°55' W 122°22'0 0.0
2016-Jul-24 07:30N 37°55' W 122°22'0 0.0
2016-Jul-24 06:33N 37°55' W 122°22'0 0.0
2016-Jul-24 05:27N 37°55' W 122°22'0 0.0
2016-Jul-24 04:33N 37°55' W 122°22'0 0.0
2016-Jul-24 03:27N 37°55' W 122°22'0 0.0
2016-Jul-24 01:24N 37°55' W 122°22'0 0.0
2016-Jul-23 22:24N 37°55' W 122°22'0 0.0
2016-Jul-23 21:21N 37°55' W 122°22'0 0.0
2016-Jul-23 20:33N 37°55' W 122°22'0 0.0
2016-Jul-23 19:15N 37°55' W 122°22'0 0.0
2016-Jul-23 18:33N 37°55' W 122°22'0 0.0
2016-Jul-23 17:27N 37°55' W 122°22'0 0.0
2016-Jul-23 16:33N 37°55' W 122°22'0 0.0
2016-Jul-23 15:33N 37°55' W 122°22'0 0.0
2016-Jul-23 14:33N 37°55' W 122°22'0 0.0
2016-Jul-23 13:33N 37°55' W 122°22'0 0.0
2016-Jul-23 12:34N 37°55' W 122°22'3 3.0
2016-Jul-23 11:34N 37°56' W 122°26'5 5.3
2016-Jul-23 10:33N 38°01' W 122°23'5 5.3
2016-Jul-23 09:33N 38°03' W 122°17'1 1.0
2016-Jul-23 08:18N 38°03' W 122°16'0 0.0
2016-Jul-23 07:24N 38°03' W 122°16'0 0.0
2016-Jul-23 06:30N 38°03' W 122°16'0 0.0
2016-Jul-23 04:30N 38°03' W 122°16'0 0.0
2016-Jul-23 03:30N 38°03' W 122°16'0 0.0
2016-Jul-23 02:30N 38°03' W 122°16'0 0.0
2016-Jul-23 01:30N 38°03' W 122°16'0 0.0
2016-Jul-23 00:30N 38°03' W 122°16'0 0.0
2016-Jul-22 23:24N 38°03' W 122°16'0 0.0
2016-Jul-22 22:30N 38°03' W 122°16'0 0.0
2016-Jul-22 21:33N 38°03' W 122°16'7 7.1
2016-Jul-22 20:33N 38°01' W 122°24'10 9.7
2016-Jul-22 19:33N 37°51' W 122°24'5 5.4
2016-Jul-22 18:33N 37°46' W 122°21'0 0.1
2016-Jul-22 17:33N 37°46' W 122°21'0 0.3
2016-Jul-22 16:33N 37°46' W 122°21'0 0.1
2016-Jul-22 15:33N 37°46' W 122°21'0 0.0
2016-Jul-22 14:33N 37°46' W 122°21'0 0.0
2016-Jul-22 13:33N 37°46' W 122°21'0 0.0
2016-Jul-22 12:33N 37°46' W 122°21'0 0.0
2016-Jul-22 11:33N 37°46' W 122°21'1 0.7
2016-Jul-22 10:33N 37°47' W 122°21'5 5.2
2016-Jul-22 09:33N 37°52' W 122°24'4 3.7
2016-Jul-22 08:33N 37°55' W 122°22'0 0.0
2016-Jul-22 07:30N 37°55' W 122°22'0 0.0
2016-Jul-22 04:33N 37°55' W 122°22'0 0.0
2016-Jul-22 03:33N 37°55' W 122°22'0 0.0
2016-Jul-22 02:12N 37°55' W 122°22'0 0.0
2016-Jul-22 01:30N 37°55' W 122°22'0 0.0
2016-Jul-22 00:27N 37°55' W 122°22'0 0.0
2016-Jul-21 23:33N 37°55' W 122°22'0 0.0
2016-Jul-21 22:27N 37°55' W 122°22'0 0.0
2016-Jul-21 21:33N 37°55' W 122°22'0 0.0
2016-Jul-21 20:30N 37°55' W 122°22'0 0.0
2016-Jul-21 19:30N 37°55' W 122°22'0 0.0
2016-Jul-21 18:33N 37°55' W 122°22'4 3.5
2016-Jul-21 17:33N 37°52' W 122°24'6 5.7
2016-Jul-21 16:33N 37°48' W 122°19'0 0.1
2016-Jul-21 15:33N 37°48' W 122°18'0 0.0
2016-Jul-21 14:33N 37°48' W 122°18'0 0.0
2016-Jul-21 13:33N 37°48' W 122°18'0 0.0
2016-Jul-21 12:33N 37°48' W 122°18'0 0.0
2016-Jul-21 11:33N 37°48' W 122°18'0 0.0
2016-Jul-21 10:33N 37°48' W 122°18'0 0.0
2016-Jul-21 09:33N 37°48' W 122°18'0 0.0
2016-Jul-21 08:33N 37°48' W 122°18'0 0.0
2016-Jul-21 07:33N 37°48' W 122°18'0 0.0
2016-Jul-21 06:33N 37°48' W 122°18'0 0.0
2016-Jul-21 05:33N 37°48' W 122°18'1 0.9
2016-Jul-21 04:33N 37°48' W 122°17'0 0.2
2016-Jul-21 03:31N 37°48' W 122°17'0 0.0
2016-Jul-21 02:31N 37°48' W 122°17'0 0.0
2016-Jul-21 01:31N 37°48' W 122°17'2 2.2
2016-Jul-21 00:33N 37°48' W 122°20'4 3.4
2016-Jul-20 23:32N 37°48' W 122°24'0 0.0
2016-Jul-20 22:32N 37°48' W 122°24'0 0.0
2016-Jul-20 21:32N 37°48' W 122°24'0 0.1
2016-Jul-20 20:14N 37°48' W 122°24'0 0.1
2016-Jul-20 19:29N 37°48' W 122°24'0 0.1
2016-Jul-20 18:32N 37°48' W 122°24'0 0.0
2016-Jul-20 17:32N 37°48' W 122°24'0 0.0
2016-Jul-20 16:32N 37°48' W 122°24'0 0.0
2016-Jul-20 15:32N 37°48' W 122°24'0 0.0
2016-Jul-20 14:32N 37°48' W 122°24'1 0.6
2016-Jul-20 13:33N 37°48' W 122°23'5 4.9
2016-Jul-20 12:34N 37°48' W 122°17'0 0.2
2016-Jul-20 11:28N 37°48' W 122°17'0 0.0
2016-Jul-20 10:31N 37°48' W 122°17'0 0.0
2016-Jul-20 09:28N 37°48' W 122°17'0 0.0
2016-Jul-20 08:31N 37°48' W 122°17'0 0.0
2016-Jul-20 07:28N 37°48' W 122°17'0 0.0
2016-Jul-20 06:28N 37°48' W 122°17'0 0.0
2016-Jul-20 05:31N 37°48' W 122°17'0 0.0
2016-Jul-20 04:31N 37°48' W 122°17'0 0.0
2016-Jul-20 03:31N 37°48' W 122°17'0 0.0
2016-Jul-20 02:31N 37°48' W 122°17'0 0.0
2016-Jul-20 01:31N 37°48' W 122°17'0 0.0
2016-Jul-19 23:13N 37°48' W 122°17'0 0.2
2016-Jul-19 22:33N 37°48' W 122°17'0 0.0
2016-Jul-19 17:20N 37°48' W 122°17'0 0.0
2016-Jul-19 15:32N 37°48' W 122°17'0 0.0
2016-Jul-19 14:32N 37°48' W 122°17'0 0.0
2016-Jul-19 13:32N 37°48' W 122°17'0 0.0
2016-Jul-19 12:08N 37°48' W 122°17'0 0.0
2016-Jul-19 11:32N 37°48' W 122°17'0 0.0
2016-Jul-19 10:32N 37°48' W 122°17'0 0.0
2016-Jul-19 09:32N 37°48' W 122°17'0 0.0
2016-Jul-19 02:20N 37°48' W 122°17'0 0.0
2016-Jul-19 01:32N 37°48' W 122°17'0 0.0
2016-Jul-19 00:32N 37°48' W 122°17'0 0.0
2016-Jul-18 23:32N 37°48' W 122°17'0 0.0
2016-Jul-18 22:20N 37°48' W 122°17'0 0.0
2016-Jul-18 20:20N 37°48' W 122°17'0 0.0
2016-Jul-18 19:32N 37°48' W 122°17'0 0.1
2016-Jul-18 18:33N 37°48' W 122°17'6 5.3
2016-Jul-18 17:28N 37°51' W 122°23'3 0.1
2016-Jul-17 12:07N 37°54' W 122°24'6 8.5
2016-Jul-17 11:28N 37°49' W 122°21'4 3.9
2016-Jul-17 10:31N 37°48' W 122°17'0 0.0
2016-Jul-17 09:33N 37°48' W 122°17'0 0.0
2016-Jul-17 08:33N 37°48' W 122°17'0 0.0
2016-Jul-17 07:30N 37°48' W 122°17'0 0.0
2016-Jul-17 06:30N 37°48' W 122°17'0 0.0
2016-Jul-17 04:30N 37°48' W 122°17'0 0.0
2016-Jul-17 03:33N 37°48' W 122°17'0 0.0
2016-Jul-17 02:30N 37°48' W 122°17'0 0.0
2016-Jul-17 01:30N 37°48' W 122°17'0 0.0
2016-Jul-17 00:30N 37°48' W 122°17'0 0.0
2016-Jul-16 23:30N 37°48' W 122°17'0 0.2
2016-Jul-16 22:28N 37°47' W 122°17'0 0.2
2016-Jul-16 21:32N 37°48' W 122°17'0 0.0
2016-Jul-16 20:26N 37°48' W 122°17'0 0.0
2016-Jul-16 19:32N 37°48' W 122°17'0 0.0
2016-Jul-16 18:32N 37°48' W 122°17'0 0.0
2016-Jul-16 17:32N 37°48' W 122°17'0 0.0
2016-Jul-16 16:32N 37°48' W 122°17'0 0.0
2016-Jul-16 15:32N 37°48' W 122°17'0 0.0
2016-Jul-16 14:32N 37°48' W 122°17'0 0.1
2016-Jul-16 13:33N 37°48' W 122°17'7 7.3
2016-Jul-16 12:33N 37°52' W 122°24'  
Track history (hours):
 
Tides and Currents Weather Stations Pressure Air Temp Water Temp Dewpoint Dewpoint Depression Visibility Wind Speed Wind Dir Waves Ship Positions

Royal Melbourne

Owner: Harley Marine Services, Inc, Seattle, WA. More information available from US FCC via Universal Licensing System and Coast Guard Vessel Documentation Center.

Last reported at 2016-Jul-25 19:19 UTC. Time now 2016-Jul-25 20:09 UTC.
Position N 37°55' W 122°22'.

Length 30 m; draft 2 m.

Type: Tug. MMSI: 366998830.

Date/timePositionNaut miles runAvg speedWind from/ knotsBaromVisibWave heightAir tempDewpointWater temp
2016-Jul-25 19:19N 37°55' W 122°22'0 0.0
2016-Jul-25 18:25N 37°55' W 122°22'0 0.0
2016-Jul-25 17:22N 37°55' W 122°22'0 0.0
2016-Jul-25 16:31N 37°55' W 122°22'0 0.0
2016-Jul-25 15:33N 37°55' W 122°22'3 2.9
2016-Jul-25 14:33N 37°56' W 122°25'7 6.8
2016-Jul-25 13:33N 38°02' W 122°22'5 0.6
2016-Jul-25 04:22N 38°03' W 122°16'0 0.0
2016-Jul-25 03:28N 38°03' W 122°16'0 0.0
2016-Jul-25 02:22N 38°03' W 122°16'3 3.9
2016-Jul-25 01:33N 38°03' W 122°20'8 8.1
2016-Jul-25 00:33N 37°56' W 122°26'9 8.8
2016-Jul-24 23:33N 37°48' W 122°21'3 3.1
2016-Jul-24 22:31N 37°48' W 122°17'0 0.0
2016-Jul-24 21:34N 37°48' W 122°17'0 0.4
2016-Jul-24 20:33N 37°48' W 122°18'3 2.7
2016-Jul-24 19:33N 37°47' W 122°21'3 2.5
2016-Jul-24 18:30N 37°44' W 122°20'0 0.2
2016-Jul-24 17:30N 37°44' W 122°20'0 0.1
2016-Jul-24 16:33N 37°44' W 122°20'0 0.0
2016-Jul-24 15:33N 37°44' W 122°20'0 0.0
2016-Jul-24 14:33N 37°44' W 122°20'0 0.0
2016-Jul-24 13:33N 37°44' W 122°20'0 0.1
2016-Jul-24 12:33N 37°45' W 122°20'7 6.7
2016-Jul-24 11:33N 37°51' W 122°24'5 4.5
2016-Jul-24 10:33N 37°55' W 122°22'0 0.0
2016-Jul-24 09:30N 37°55' W 122°22'0 0.0
2016-Jul-24 08:06N 37°55' W 122°22'0 0.0
2016-Jul-24 07:30N 37°55' W 122°22'0 0.0
2016-Jul-24 06:33N 37°55' W 122°22'0 0.0
2016-Jul-24 05:27N 37°55' W 122°22'0 0.0
2016-Jul-24 04:33N 37°55' W 122°22'0 0.0
2016-Jul-24 03:27N 37°55' W 122°22'0 0.0
2016-Jul-24 01:24N 37°55' W 122°22'0 0.0
2016-Jul-23 22:24N 37°55' W 122°22'0 0.0
2016-Jul-23 21:21N 37°55' W 122°22'0 0.0
2016-Jul-23 20:33N 37°55' W 122°22'0 0.0
2016-Jul-23 19:15N 37°55' W 122°22'0 0.0
2016-Jul-23 18:33N 37°55' W 122°22'0 0.0
2016-Jul-23 17:27N 37°55' W 122°22'0 0.0
2016-Jul-23 16:33N 37°55' W 122°22'0 0.0
2016-Jul-23 15:33N 37°55' W 122°22'0 0.0
2016-Jul-23 14:33N 37°55' W 122°22'0 0.0
2016-Jul-23 13:33N 37°55' W 122°22'0 0.0
2016-Jul-23 12:34N 37°55' W 122°22'3 3.0
2016-Jul-23 11:34N 37°56' W 122°26'5 5.3
2016-Jul-23 10:33N 38°01' W 122°23'5 5.3
2016-Jul-23 09:33N 38°03' W 122°17'1 1.0
2016-Jul-23 08:18N 38°03' W 122°16'0 0.0
2016-Jul-23 07:24N 38°03' W 122°16'0 0.0
2016-Jul-23 06:30N 38°03' W 122°16'0 0.0
2016-Jul-23 04:30N 38°03' W 122°16'0 0.0
2016-Jul-23 03:30N 38°03' W 122°16'0 0.0
2016-Jul-23 02:30N 38°03' W 122°16'0 0.0
2016-Jul-23 01:30N 38°03' W 122°16'0 0.0
2016-Jul-23 00:30N 38°03' W 122°16'0 0.0
2016-Jul-22 23:24N 38°03' W 122°16'0 0.0
2016-Jul-22 22:30N 38°03' W 122°16'0 0.0
2016-Jul-22 21:33N 38°03' W 122°16'7 7.1
2016-Jul-22 20:33N 38°01' W 122°24'10 9.7
2016-Jul-22 19:33N 37°51' W 122°24'5 5.4
2016-Jul-22 18:33N 37°46' W 122°21'0 0.1
2016-Jul-22 17:33N 37°46' W 122°21'0 0.3
2016-Jul-22 16:33N 37°46' W 122°21'0 0.1
2016-Jul-22 15:33N 37°46' W 122°21'0 0.0
2016-Jul-22 14:33N 37°46' W 122°21'0 0.0
2016-Jul-22 13:33N 37°46' W 122°21'0 0.0
2016-Jul-22 12:33N 37°46' W 122°21'0 0.0
2016-Jul-22 11:33N 37°46' W 122°21'1 0.7
2016-Jul-22 10:33N 37°47' W 122°21'5 5.2
2016-Jul-22 09:33N 37°52' W 122°24'4 3.7
2016-Jul-22 08:33N 37°55' W 122°22'0 0.0
2016-Jul-22 07:30N 37°55' W 122°22'0 0.0
2016-Jul-22 04:33N 37°55' W 122°22'0 0.0
2016-Jul-22 03:33N 37°55' W 122°22'0 0.0
2016-Jul-22 02:12N 37°55' W 122°22'0 0.0
2016-Jul-22 01:30N 37°55' W 122°22'0 0.0
2016-Jul-22 00:27N 37°55' W 122°22'0 0.0
2016-Jul-21 23:33N 37°55' W 122°22'0 0.0
2016-Jul-21 22:27N 37°55' W 122°22'0 0.0
2016-Jul-21 21:33N 37°55' W 122°22'0 0.0
2016-Jul-21 20:30N 37°55' W 122°22'0 0.0
2016-Jul-21 19:30N 37°55' W 122°22'0 0.0
2016-Jul-21 18:33N 37°55' W 122°22'4 3.5
2016-Jul-21 17:33N 37°52' W 122°24'6 5.7
2016-Jul-21 16:33N 37°48' W 122°19'0 0.1
2016-Jul-21 15:33N 37°48' W 122°18'0 0.0
2016-Jul-21 14:33N 37°48' W 122°18'0 0.0
2016-Jul-21 13:33N 37°48' W 122°18'0 0.0
2016-Jul-21 12:33N 37°48' W 122°18'0 0.0
2016-Jul-21 11:33N 37°48' W 122°18'0 0.0
2016-Jul-21 10:33N 37°48' W 122°18'0 0.0
2016-Jul-21 09:33N 37°48' W 122°18'0 0.0
2016-Jul-21 08:33N 37°48' W 122°18'0 0.0
2016-Jul-21 07:33N 37°48' W 122°18'0 0.0
2016-Jul-21 06:33N 37°48' W 122°18'0 0.0
2016-Jul-21 05:33N 37°48' W 122°18'1 0.9
2016-Jul-21 04:33N 37°48' W 122°17'0 0.2
2016-Jul-21 03:31N 37°48' W 122°17'0 0.0
2016-Jul-21 02:31N 37°48' W 122°17'0 0.0
2016-Jul-21 01:31N 37°48' W 122°17'2 2.2
2016-Jul-21 00:33N 37°48' W 122°20'4 3.4
2016-Jul-20 23:32N 37°48' W 122°24'0 0.0
2016-Jul-20 22:32N 37°48' W 122°24'0 0.0
2016-Jul-20 21:32N 37°48' W 122°24'0 0.1
2016-Jul-20 20:14N 37°48' W 122°24'0 0.1
2016-Jul-20 19:29N 37°48' W 122°24'0 0.1
2016-Jul-20 18:32N 37°48' W 122°24'0 0.0
2016-Jul-20 17:32N 37°48' W 122°24'0 0.0
2016-Jul-20 16:32N 37°48' W 122°24'0 0.0
2016-Jul-20 15:32N 37°48' W 122°24'0 0.0
2016-Jul-20 14:32N 37°48' W 122°24'1 0.6
2016-Jul-20 13:33N 37°48' W 122°23'5 4.9
2016-Jul-20 12:34N 37°48' W 122°17'0 0.2
2016-Jul-20 11:28N 37°48' W 122°17'0 0.0
2016-Jul-20 10:31N 37°48' W 122°17'0 0.0
2016-Jul-20 09:28N 37°48' W 122°17'0 0.0
2016-Jul-20 08:31N 37°48' W 122°17'0 0.0
2016-Jul-20 07:28N 37°48' W 122°17'0 0.0
2016-Jul-20 06:28N 37°48' W 122°17'0 0.0
2016-Jul-20 05:31N 37°48' W 122°17'0 0.0
2016-Jul-20 04:31N 37°48' W 122°17'0 0.0
2016-Jul-20 03:31N 37°48' W 122°17'0 0.0
2016-Jul-20 02:31N 37°48' W 122°17'0 0.0
2016-Jul-20 01:31N 37°48' W 122°17'0 0.0
2016-Jul-19 23:13N 37°48' W 122°17'0 0.2
2016-Jul-19 22:33N 37°48' W 122°17'0 0.0
2016-Jul-19 17:20N 37°48' W 122°17'0 0.0
2016-Jul-19 15:32N 37°48' W 122°17'0 0.0
2016-Jul-19 14:32N 37°48' W 122°17'0 0.0
2016-Jul-19 13:32N 37°48' W 122°17'0 0.0
2016-Jul-19 12:08N 37°48' W 122°17'0 0.0
2016-Jul-19 11:32N 37°48' W 122°17'0 0.0
2016-Jul-19 10:32N 37°48' W 122°17'0 0.0
2016-Jul-19 09:32N 37°48' W 122°17'0 0.0
2016-Jul-19 02:20N 37°48' W 122°17'0 0.0
2016-Jul-19 01:32N 37°48' W 122°17'0 0.0
2016-Jul-19 00:32N 37°48' W 122°17'0 0.0
2016-Jul-18 23:32N 37°48' W 122°17'0 0.0
2016-Jul-18 22:20N 37°48' W 122°17'0 0.0
2016-Jul-18 20:20N 37°48' W 122°17'0 0.0
2016-Jul-18 19:32N 37°48' W 122°17'0 0.1
2016-Jul-18 18:33N 37°48' W 122°17'6 5.3
2016-Jul-18 17:28N 37°51' W 122°23'3 0.1
2016-Jul-17 12:07N 37°54' W 122°24'6 8.5
2016-Jul-17 11:28N 37°49' W 122°21'4 3.9
2016-Jul-17 10:31N 37°48' W 122°17'0 0.0
2016-Jul-17 09:33N 37°48' W 122°17'0 0.0
2016-Jul-17 08:33N 37°48' W 122°17'0 0.0
2016-Jul-17 07:30N 37°48' W 122°17'0 0.0
2016-Jul-17 06:30N 37°48' W 122°17'0 0.0
2016-Jul-17 04:30N 37°48' W 122°17'0 0.0
2016-Jul-17 03:33N 37°48' W 122°17'0 0.0
2016-Jul-17 02:30N 37°48' W 122°17'0 0.0
2016-Jul-17 01:30N 37°48' W 122°17'0 0.0
2016-Jul-17 00:30N 37°48' W 122°17'0 0.0
2016-Jul-16 23:30N 37°48' W 122°17'0 0.2
2016-Jul-16 22:28N 37°47' W 122°17'0 0.2
2016-Jul-16 21:32N 37°48' W 122°17'0 0.0
2016-Jul-16 20:26N 37°48' W 122°17'0 0.0
2016-Jul-16 19:32N 37°48' W 122°17'0 0.0
2016-Jul-16 18:32N 37°48' W 122°17'0 0.0
2016-Jul-16 17:32N 37°48' W 122°17'0 0.0
2016-Jul-16 16:32N 37°48' W 122°17'0 0.0
2016-Jul-16 15:32N 37°48' W 122°17'0 0.0
2016-Jul-16 14:32N 37°48' W 122°17'0 0.1
2016-Jul-16 13:33N 37°48' W 122°17'7 7.3
2016-Jul-16 12:33N 37°52' W 122°24'  

Dump ship's entire track history